sensor_id;sensor_type;location;lat;lon;timestamp;temperature;humidity
39983;DHT22;25670;44.782;10.356;2023-12-20T00:01:38;2.70;99.90
39983;DHT22;25670;44.782;10.356;2023-12-20T00:04:05;2.40;99.90
39983;DHT22;25670;44.782;10.356;2023-12-20T00:06:31;2.00;99.90
39983;DHT22;25670;44.782;10.356;2023-12-20T00:08:58;2.40;99.90
39983;DHT22;25670;44.782;10.356;2023-12-20T00:11:24;2.40;99.90
39983;DHT22;25670;44.782;10.356;2023-12-20T00:13:50;2.40;99.90
39983;DHT22;25670;44.782;10.356;2023-12-20T00:16:17;2.40;99.90
39983;DHT22;25670;44.782;10.356;2023-12-20T00:18:43;2.50;99.90
39983;DHT22;25670;44.782;10.356;2023-12-20T00:21:11;2.90;99.90
39983;DHT22;25670;44.782;10.356;2023-12-20T00:23:37;2.40;99.90
39983;DHT22;25670;44.782;10.356;2023-12-20T00:26:03;3.90;99.90
39983;DHT22;25670;44.782;10.356;2023-12-20T00:28:30;2.40;99.90
39983;DHT22;25670;44.782;10.356;2023-12-20T00:30:56;2.70;99.90
39983;DHT22;25670;44.782;10.356;2023-12-20T00:33:22;4.00;99.90
39983;DHT22;25670;44.782;10.356;2023-12-20T00:35:49;2.00;99.90
39983;DHT22;25670;44.782;10.356;2023-12-20T00:38:15;1.80;99.90
39983;DHT22;25670;44.782;10.356;2023-12-20T00:40:41;1.70;99.90
39983;DHT22;25670;44.782;10.356;2023-12-20T00:43:07;2.20;99.90
39983;DHT22;25670;44.782;10.356;2023-12-20T00:45:33;1.70;99.90
39983;DHT22;25670;44.782;10.356;2023-12-20T00:47:59;2.30;99.90
39983;DHT22;25670;44.782;10.356;2023-12-20T00:50:26;1.60;99.90
39983;DHT22;25670;44.782;10.356;2023-12-20T00:52:52;1.60;99.90
39983;DHT22;25670;44.782;10.356;2023-12-20T00:55:20;1.60;99.90
39983;DHT22;25670;44.782;10.356;2023-12-20T00:57:46;1.50;99.90
39983;DHT22;25670;44.782;10.356;2023-12-20T01:00:13;1.50;99.90
39983;DHT22;25670;44.782;10.356;2023-12-20T01:02:40;1.60;99.90
39983;DHT22;25670;44.782;10.356;2023-12-20T01:05:06;1.60;99.90
39983;DHT22;25670;44.782;10.356;2023-12-20T01:07:33;1.60;99.90
39983;DHT22;25670;44.782;10.356;2023-12-20T01:09:59;1.50;99.90
39983;DHT22;25670;44.782;10.356;2023-12-20T01:12:26;1.60;99.90
39983;DHT22;25670;44.782;10.356;2023-12-20T01:14:52;1.80;99.90
39983;DHT22;25670;44.782;10.356;2023-12-20T01:17:18;2.20;99.90
39983;DHT22;25670;44.782;10.356;2023-12-20T01:19:44;1.60;99.90
39983;DHT22;25670;44.782;10.356;2023-12-20T01:22:11;1.40;99.90
39983;DHT22;25670;44.782;10.356;2023-12-20T01:24:37;1.20;99.90
39983;DHT22;25670;44.782;10.356;2023-12-20T01:27:03;1.10;99.90
39983;DHT22;25670;44.782;10.356;2023-12-20T01:29:29;1.00;99.90
39983;DHT22;25670;44.782;10.356;2023-12-20T01:31:56;0.70;99.90
39983;DHT22;25670;44.782;10.356;2023-12-20T01:34:22;0.80;99.90
39983;DHT22;25670;44.782;10.356;2023-12-20T01:36:48;2.20;99.90
39983;DHT22;25670;44.782;10.356;2023-12-20T01:39:14;1.70;99.90
39983;DHT22;25670;44.782;10.356;2023-12-20T01:41:40;2.00;99.90
39983;DHT22;25670;44.782;10.356;2023-12-20T01:44:07;0.60;99.90
39983;DHT22;25670;44.782;10.356;2023-12-20T01:46:33;0.70;99.90
39983;DHT22;25670;44.782;10.356;2023-12-20T01:48:59;1.10;99.90
39983;DHT22;25670;44.782;10.356;2023-12-20T01:51:26;0.70;99.90
39983;DHT22;25670;44.782;10.356;2023-12-20T01:53:57;1.70;99.90
39983;DHT22;25670;44.782;10.356;2023-12-20T01:56:25;2.00;99.90
39983;DHT22;25670;44.782;10.356;2023-12-20T01:58:52;1.00;99.90
39983;DHT22;25670;44.782;10.356;2023-12-20T02:01:19;0.30;99.90
39983;DHT22;25670;44.782;10.356;2023-12-20T02:03:46;1.10;99.90
39983;DHT22;25670;44.782;10.356;2023-12-20T02:06:12;1.00;99.90
39983;DHT22;25670;44.782;10.356;2023-12-20T02:08:38;1.00;99.90
39983;DHT22;25670;44.782;10.356;2023-12-20T02:11:07;0.90;99.90
39983;DHT22;25670;44.782;10.356;2023-12-20T02:13:34;0.70;99.90
39983;DHT22;25670;44.782;10.356;2023-12-20T02:16:00;0.60;99.90
39983;DHT22;25670;44.782;10.356;2023-12-20T02:18:27;0.60;99.90
39983;DHT22;25670;44.782;10.356;2023-12-20T02:20:53;0.60;99.90
39983;DHT22;25670;44.782;10.356;2023-12-20T02:23:19;0.70;99.90
39983;DHT22;25670;44.782;10.356;2023-12-20T02:25:46;1.00;99.90
39983;DHT22;25670;44.782;10.356;2023-12-20T02:28:13;0.70;99.90
39983;DHT22;25670;44.782;10.356;2023-12-20T02:30:39;0.80;99.90
39983;DHT22;25670;44.782;10.356;2023-12-20T02:33:08;0.90;99.90
39983;DHT22;25670;44.782;10.356;2023-12-20T02:35:36;0.90;99.90
39983;DHT22;25670;44.782;10.356;2023-12-20T02:38:02;2.00;99.90
39983;DHT22;25670;44.782;10.356;2023-12-20T02:40:28;0.80;99.90
39983;DHT22;25670;44.782;10.356;2023-12-20T02:42:55;1.20;99.90
39983;DHT22;25670;44.782;10.356;2023-12-20T02:45:21;1.00;99.90
39983;DHT22;25670;44.782;10.356;2023-12-20T02:47:47;1.20;99.90
39983;DHT22;25670;44.782;10.356;2023-12-20T02:50:13;2.30;99.90
39983;DHT22;25670;44.782;10.356;2023-12-20T02:52:40;2.80;99.90
39983;DHT22;25670;44.782;10.356;2023-12-20T02:55:06;2.00;99.90
39983;DHT22;25670;44.782;10.356;2023-12-20T02:57:32;1.70;99.90
39983;DHT22;25670;44.782;10.356;2023-12-20T02:59:59;1.80;99.90
39983;DHT22;25670;44.782;10.356;2023-12-20T03:02:25;2.00;99.90
39983;DHT22;25670;44.782;10.356;2023-12-20T03:04:51;2.00;99.90
39983;DHT22;25670;44.782;10.356;2023-12-20T03:07:18;2.40;99.90
39983;DHT22;25670;44.782;10.356;2023-12-20T03:09:44;2.10;99.90
39983;DHT22;25670;44.782;10.356;2023-12-20T03:12:10;2.10;99.90
39983;DHT22;25670;44.782;10.356;2023-12-20T03:14:37;2.20;99.90
39983;DHT22;25670;44.782;10.356;2023-12-20T03:17:03;2.20;99.90
39983;DHT22;25670;44.782;10.356;2023-12-20T03:19:30;2.20;99.90
39983;DHT22;25670;44.782;10.356;2023-12-20T03:21:56;2.20;99.90
39983;DHT22;25670;44.782;10.356;2023-12-20T03:24:22;2.10;99.90
39983;DHT22;25670;44.782;10.356;2023-12-20T03:26:48;2.00;99.90
39983;DHT22;25670;44.782;10.356;2023-12-20T03:29:14;1.90;99.90
39983;DHT22;25670;44.782;10.356;2023-12-20T03:31:41;1.90;99.90
39983;DHT22;25670;44.782;10.356;2023-12-20T03:34:07;1.80;99.90
39983;DHT22;25670;44.782;10.356;2023-12-20T03:36:33;1.80;99.90
39983;DHT22;25670;44.782;10.356;2023-12-20T03:38:59;1.70;99.90
39983;DHT22;25670;44.782;10.356;2023-12-20T03:41:26;1.60;99.90
39983;DHT22;25670;44.782;10.356;2023-12-20T03:43:52;1.50;99.90
39983;DHT22;25670;44.782;10.356;2023-12-20T03:46:18;1.50;99.90
39983;DHT22;25670;44.782;10.356;2023-12-20T03:48:45;1.40;99.90
39983;DHT22;25670;44.782;10.356;2023-12-20T03:51:11;1.40;99.90
39983;DHT22;25670;44.782;10.356;2023-12-20T03:53:38;1.30;99.90
39983;DHT22;25670;44.782;10.356;2023-12-20T03:56:05;1.20;99.90
39983;DHT22;25670;44.782;10.356;2023-12-20T03:58:31;1.20;99.90
39983;DHT22;25670;44.782;10.356;2023-12-20T04:00:58;1.20;99.90
39983;DHT22;25670;44.782;10.356;2023-12-20T04:03:24;1.20;99.90
39983;DHT22;25670;44.782;10.356;2023-12-20T04:05:50;1.10;99.90
39983;DHT22;25670;44.782;10.356;2023-12-20T04:08:16;1.10;99.90
39983;DHT22;25670;44.782;10.356;2023-12-20T04:10:42;1.20;99.90
39983;DHT22;25670;44.782;10.356;2023-12-20T04:13:08;1.20;99.90
39983;DHT22;25670;44.782;10.356;2023-12-20T04:15:35;1.30;99.90
39983;DHT22;25670;44.782;10.356;2023-12-20T04:18:01;1.40;99.90
39983;DHT22;25670;44.782;10.356;2023-12-20T04:20:27;1.50;99.90
39983;DHT22;25670;44.782;10.356;2023-12-20T04:22:53;1.50;99.90
39983;DHT22;25670;44.782;10.356;2023-12-20T04:25:19;1.50;99.90
39983;DHT22;25670;44.782;10.356;2023-12-20T04:27:45;1.50;99.90
39983;DHT22;25670;44.782;10.356;2023-12-20T04:30:13;1.50;99.90
39983;DHT22;25670;44.782;10.356;2023-12-20T04:32:39;1.60;99.90
39983;DHT22;25670;44.782;10.356;2023-12-20T04:35:05;1.70;99.90
39983;DHT22;25670;44.782;10.356;2023-12-20T04:37:32;1.80;99.90
39983;DHT22;25670;44.782;10.356;2023-12-20T04:39:58;1.80;99.90
39983;DHT22;25670;44.782;10.356;2023-12-20T04:42:24;1.80;99.90
39983;DHT22;25670;44.782;10.356;2023-12-20T04:44:50;1.90;99.90
39983;DHT22;25670;44.782;10.356;2023-12-20T04:47:16;1.90;99.90
39983;DHT22;25670;44.782;10.356;2023-12-20T04:49:42;2.50;99.90
39983;DHT22;25670;44.782;10.356;2023-12-20T04:52:08;2.00;99.90
39983;DHT22;25670;44.782;10.356;2023-12-20T04:54:35;2.00;99.90
39983;DHT22;25670;44.782;10.356;2023-12-20T04:57:01;1.90;99.90
39983;DHT22;25670;44.782;10.356;2023-12-20T04:59:27;1.80;99.90
39983;DHT22;25670;44.782;10.356;2023-12-20T05:01:53;1.90;99.90
39983;DHT22;25670;44.782;10.356;2023-12-20T05:04:19;1.90;99.90
39983;DHT22;25670;44.782;10.356;2023-12-20T05:06:46;1.90;99.90
39983;DHT22;25670;44.782;10.356;2023-12-20T05:09:12;1.90;99.90
39983;DHT22;25670;44.782;10.356;2023-12-20T05:11:38;2.10;99.90
39983;DHT22;25670;44.782;10.356;2023-12-20T05:14:05;2.20;99.90
39983;DHT22;25670;44.782;10.356;2023-12-20T05:16:31;2.10;99.90
39983;DHT22;25670;44.782;10.356;2023-12-20T05:18:57;2.10;99.90
39983;DHT22;25670;44.782;10.356;2023-12-20T05:21:24;2.30;99.90
39983;DHT22;25670;44.782;10.356;2023-12-20T05:23:50;2.50;99.90
39983;DHT22;25670;44.782;10.356;2023-12-20T05:26:16;2.80;99.90
39983;DHT22;25670;44.782;10.356;2023-12-20T05:28:42;3.00;99.90
39983;DHT22;25670;44.782;10.356;2023-12-20T05:31:09;3.20;99.90
39983;DHT22;25670;44.782;10.356;2023-12-20T05:33:35;3.40;99.90
39983;DHT22;25670;44.782;10.356;2023-12-20T05:36:01;3.40;99.90
39983;DHT22;25670;44.782;10.356;2023-12-20T05:38:27;3.30;99.90
39983;DHT22;25670;44.782;10.356;2023-12-20T05:40:53;3.10;99.90
39983;DHT22;25670;44.782;10.356;2023-12-20T05:43:19;3.00;99.90
39983;DHT22;25670;44.782;10.356;2023-12-20T05:45:45;2.90;99.90
39983;DHT22;25670;44.782;10.356;2023-12-20T05:48:12;2.80;99.90
39983;DHT22;25670;44.782;10.356;2023-12-20T05:50:38;2.80;99.90
39983;DHT22;25670;44.782;10.356;2023-12-20T05:53:05;2.70;99.90
39983;DHT22;25670;44.782;10.356;2023-12-20T05:55:31;2.70;99.90
39983;DHT22;25670;44.782;10.356;2023-12-20T05:57:57;2.70;99.90
39983;DHT22;25670;44.782;10.356;2023-12-20T06:00:23;2.60;99.90
39983;DHT22;25670;44.782;10.356;2023-12-20T06:02:49;2.60;99.90
39983;DHT22;25670;44.782;10.356;2023-12-20T06:05:16;2.60;99.90
39983;DHT22;25670;44.782;10.356;2023-12-20T06:07:42;2.60;99.90
39983;DHT22;25670;44.782;10.356;2023-12-20T06:10:08;2.60;99.90
39983;DHT22;25670;44.782;10.356;2023-12-20T06:12:34;2.60;99.90
39983;DHT22;25670;44.782;10.356;2023-12-20T06:15:02;2.50;99.90
39983;DHT22;25670;44.782;10.356;2023-12-20T06:17:29;2.50;99.90
39983;DHT22;25670;44.782;10.356;2023-12-20T06:19:57;2.60;99.90
39983;DHT22;25670;44.782;10.356;2023-12-20T06:22:23;2.60;99.90
39983;DHT22;25670;44.782;10.356;2023-12-20T06:24:49;2.50;99.90
39983;DHT22;25670;44.782;10.356;2023-12-20T06:27:15;2.40;99.90
39983;DHT22;25670;44.782;10.356;2023-12-20T06:29:41;2.40;99.90
39983;DHT22;25670;44.782;10.356;2023-12-20T06:32:10;2.30;99.90
39983;DHT22;25670;44.782;10.356;2023-12-20T06:34:36;2.30;99.90
39983;DHT22;25670;44.782;10.356;2023-12-20T06:37:03;2.30;99.90
39983;DHT22;25670;44.782;10.356;2023-12-20T06:39:31;2.30;99.90
39983;DHT22;25670;44.782;10.356;2023-12-20T06:41:57;2.30;99.90
39983;DHT22;25670;44.782;10.356;2023-12-20T06:44:23;2.30;99.90
39983;DHT22;25670;44.782;10.356;2023-12-20T06:46:50;2.20;99.90
39983;DHT22;25670;44.782;10.356;2023-12-20T06:49:16;2.10;99.90
39983;DHT22;25670;44.782;10.356;2023-12-20T06:51:42;2.20;99.90
39983;DHT22;25670;44.782;10.356;2023-12-20T06:54:09;2.20;99.90
39983;DHT22;25670;44.782;10.356;2023-12-20T06:56:35;2.20;99.90
39983;DHT22;25670;44.782;10.356;2023-12-20T06:59:01;2.20;99.90
39983;DHT22;25670;44.782;10.356;2023-12-20T07:01:27;2.30;99.90
39983;DHT22;25670;44.782;10.356;2023-12-20T07:03:54;2.20;99.90
39983;DHT22;25670;44.782;10.356;2023-12-20T07:06:20;2.30;99.90
39983;DHT22;25670;44.782;10.356;2023-12-20T07:08:46;2.40;99.90
39983;DHT22;25670;44.782;10.356;2023-12-20T07:11:12;2.50;99.90
39983;DHT22;25670;44.782;10.356;2023-12-20T07:13:39;2.60;99.90
39983;DHT22;25670;44.782;10.356;2023-12-20T07:16:05;2.70;99.90
39983;DHT22;25670;44.782;10.356;2023-12-20T07:18:31;2.90;99.90
39983;DHT22;25670;44.782;10.356;2023-12-20T07:20:57;2.90;99.90
39983;DHT22;25670;44.782;10.356;2023-12-20T07:23:24;3.20;99.90
39983;DHT22;25670;44.782;10.356;2023-12-20T07:25:51;3.00;99.90
39983;DHT22;25670;44.782;10.356;2023-12-20T07:28:17;3.10;99.90
39983;DHT22;25670;44.782;10.356;2023-12-20T07:30:44;3.10;99.90
39983;DHT22;25670;44.782;10.356;2023-12-20T07:33:10;3.10;99.90
39983;DHT22;25670;44.782;10.356;2023-12-20T07:35:38;3.20;99.90
39983;DHT22;25670;44.782;10.356;2023-12-20T07:38:04;3.30;99.90
39983;DHT22;25670;44.782;10.356;2023-12-20T07:40:30;3.30;99.90
39983;DHT22;25670;44.782;10.356;2023-12-20T07:42:56;3.30;99.90
39983;DHT22;25670;44.782;10.356;2023-12-20T07:45:24;3.30;99.90
39983;DHT22;25670;44.782;10.356;2023-12-20T07:47:50;3.40;99.90
39983;DHT22;25670;44.782;10.356;2023-12-20T07:50:16;3.50;99.90
39983;DHT22;25670;44.782;10.356;2023-12-20T07:52:42;3.60;99.90
39983;DHT22;25670;44.782;10.356;2023-12-20T07:55:08;3.70;99.90
39983;DHT22;25670;44.782;10.356;2023-12-20T07:57:35;3.80;99.90
39983;DHT22;25670;44.782;10.356;2023-12-20T08:00:01;4.00;99.90
39983;DHT22;25670;44.782;10.356;2023-12-20T08:02:30;4.20;99.90
39983;DHT22;25670;44.782;10.356;2023-12-20T08:04:56;4.20;99.90
39983;DHT22;25670;44.782;10.356;2023-12-20T08:07:22;4.20;99.90
39983;DHT22;25670;44.782;10.356;2023-12-20T08:09:48;4.40;99.90
39983;DHT22;25670;44.782;10.356;2023-12-20T08:12:15;4.50;99.90
39983;DHT22;25670;44.782;10.356;2023-12-20T08:14:42;4.70;99.90
39983;DHT22;25670;44.782;10.356;2023-12-20T08:17:09;4.60;99.90
39983;DHT22;25670;44.782;10.356;2023-12-20T08:19:35;4.70;99.90
39983;DHT22;25670;44.782;10.356;2023-12-20T08:22:01;4.80;99.90
39983;DHT22;25670;44.782;10.356;2023-12-20T08:24:27;4.80;99.90
39983;DHT22;25670;44.782;10.356;2023-12-20T08:26:53;5.10;99.90
39983;DHT22;25670;44.782;10.356;2023-12-20T08:29:19;4.90;99.90
39983;DHT22;25670;44.782;10.356;2023-12-20T08:31:52;4.90;99.90
39983;DHT22;25670;44.782;10.356;2023-12-20T08:34:18;5.00;99.90
39983;DHT22;25670;44.782;10.356;2023-12-20T08:36:44;5.10;99.90
39983;DHT22;25670;44.782;10.356;2023-12-20T08:39:10;5.10;99.90
39983;DHT22;25670;44.782;10.356;2023-12-20T08:41:36;5.30;99.90
39983;DHT22;25670;44.782;10.356;2023-12-20T08:44:03;5.30;99.90
39983;DHT22;25670;44.782;10.356;2023-12-20T08:46:29;5.40;99.90
39983;DHT22;25670;44.782;10.356;2023-12-20T08:48:55;5.40;99.90
39983;DHT22;25670;44.782;10.356;2023-12-20T08:51:21;5.50;99.90
39983;DHT22;25670;44.782;10.356;2023-12-20T08:53:49;5.60;99.90
39983;DHT22;25670;44.782;10.356;2023-12-20T08:56:15;5.70;99.90
39983;DHT22;25670;44.782;10.356;2023-12-20T08:58:42;5.80;99.90
39983;DHT22;25670;44.782;10.356;2023-12-20T09:01:08;5.80;99.90
39983;DHT22;25670;44.782;10.356;2023-12-20T09:03:35;5.90;99.90
39983;DHT22;25670;44.782;10.356;2023-12-20T09:06:01;6.10;99.90
39983;DHT22;25670;44.782;10.356;2023-12-20T09:08:27;6.20;99.90
39983;DHT22;25670;44.782;10.356;2023-12-20T09:10:53;6.30;99.90
39983;DHT22;25670;44.782;10.356;2023-12-20T09:13:19;6.40;99.90
39983;DHT22;25670;44.782;10.356;2023-12-20T09:15:46;6.50;99.90
39983;DHT22;25670;44.782;10.356;2023-12-20T09:18:12;6.60;99.90
39983;DHT22;25670;44.782;10.356;2023-12-20T09:20:38;6.60;99.90
39983;DHT22;25670;44.782;10.356;2023-12-20T09:23:05;6.80;99.90
39983;DHT22;25670;44.782;10.356;2023-12-20T09:25:31;6.70;99.90
39983;DHT22;25670;44.782;10.356;2023-12-20T09:27:57;6.70;99.90
39983;DHT22;25670;44.782;10.356;2023-12-20T09:30:23;6.80;99.90
39983;DHT22;25670;44.782;10.356;2023-12-20T09:32:50;6.90;99.90
39983;DHT22;25670;44.782;10.356;2023-12-20T09:35:16;6.90;99.90
39983;DHT22;25670;44.782;10.356;2023-12-20T09:37:42;7.10;99.90
39983;DHT22;25670;44.782;10.356;2023-12-20T09:40:13;7.20;99.90
39983;DHT22;25670;44.782;10.356;2023-12-20T09:42:51;7.20;99.90
39983;DHT22;25670;44.782;10.356;2023-12-20T09:45:21;7.30;99.90
39983;DHT22;25670;44.782;10.356;2023-12-20T09:47:53;7.30;99.90
39983;DHT22;25670;44.782;10.356;2023-12-20T09:50:20;7.40;99.90
39983;DHT22;25670;44.782;10.356;2023-12-20T09:52:50;7.40;99.90
39983;DHT22;25670;44.782;10.356;2023-12-20T09:55:18;7.50;99.90
39983;DHT22;25670;44.782;10.356;2023-12-20T09:57:48;7.50;99.90
39983;DHT22;25670;44.782;10.356;2023-12-20T10:00:15;7.70;99.90
39983;DHT22;25670;44.782;10.356;2023-12-20T10:03:00;7.90;99.90
39983;DHT22;25670;44.782;10.356;2023-12-20T10:05:31;7.90;99.90
39983;DHT22;25670;44.782;10.356;2023-12-20T10:07:58;8.10;99.90
39983;DHT22;25670;44.782;10.356;2023-12-20T10:10:25;8.10;99.90
39983;DHT22;25670;44.782;10.356;2023-12-20T10:15:36;8.20;99.90
39983;DHT22;25670;44.782;10.356;2023-12-20T10:18:03;8.40;99.90
39983;DHT22;25670;44.782;10.356;2023-12-20T10:20:30;8.50;99.90
39983;DHT22;25670;44.782;10.356;2023-12-20T10:22:57;8.50;99.90
39983;DHT22;25670;44.782;10.356;2023-12-20T10:25:24;8.60;99.90
39983;DHT22;25670;44.782;10.356;2023-12-20T10:28:14;8.60;99.90
39983;DHT22;25670;44.782;10.356;2023-12-20T10:30:44;8.70;99.90
39983;DHT22;25670;44.782;10.356;2023-12-20T10:33:11;8.70;99.90
39983;DHT22;25670;44.782;10.356;2023-12-20T10:35:40;8.70;99.90
39983;DHT22;25670;44.782;10.356;2023-12-20T10:38:08;8.70;99.90
39983;DHT22;25670;44.782;10.356;2023-12-20T10:40:36;8.60;99.90
39983;DHT22;25670;44.782;10.356;2023-12-20T10:43:03;8.60;99.90
39983;DHT22;25670;44.782;10.356;2023-12-20T10:45:30;9.00;99.90
39983;DHT22;25670;44.782;10.356;2023-12-20T10:47:56;8.60;99.90
39983;DHT22;25670;44.782;10.356;2023-12-20T10:50:26;8.60;99.90
39983;DHT22;25670;44.782;10.356;2023-12-20T10:52:52;8.50;99.90
39983;DHT22;25670;44.782;10.356;2023-12-20T10:55:24;8.50;99.90
39983;DHT22;25670;44.782;10.356;2023-12-20T10:57:51;8.60;99.90
39983;DHT22;25670;44.782;10.356;2023-12-20T11:00:19;8.60;99.90
39983;DHT22;25670;44.782;10.356;2023-12-20T11:02:49;8.70;99.90
39983;DHT22;25670;44.782;10.356;2023-12-20T11:05:41;8.70;99.90
39983;DHT22;25670;44.782;10.356;2023-12-20T11:08:13;8.80;99.90
39983;DHT22;25670;44.782;10.356;2023-12-20T11:11:04;8.90;99.90
39983;DHT22;25670;44.782;10.356;2023-12-20T11:13:36;8.90;99.90
39983;DHT22;25670;44.782;10.356;2023-12-20T11:16:04;8.80;99.90
39983;DHT22;25670;44.782;10.356;2023-12-20T11:18:30;8.40;99.90
39983;DHT22;25670;44.782;10.356;2023-12-20T11:21:04;8.20;99.90
39983;DHT22;25670;44.782;10.356;2023-12-20T11:23:32;8.10;99.90
39983;DHT22;25670;44.782;10.356;2023-12-20T11:26:01;8.10;99.90
39983;DHT22;25670;44.782;10.356;2023-12-20T11:28:28;8.70;99.90
39983;DHT22;25670;44.782;10.356;2023-12-20T11:30:58;8.00;99.90
39983;DHT22;25670;44.782;10.356;2023-12-20T11:33:30;7.90;99.90
39983;DHT22;25670;44.782;10.356;2023-12-20T11:35:57;7.90;99.90
39983;DHT22;25670;44.782;10.356;2023-12-20T11:38:25;7.90;99.90
39983;DHT22;25670;44.782;10.356;2023-12-20T11:40:54;8.10;99.90
39983;DHT22;25670;44.782;10.356;2023-12-20T11:43:31;8.10;99.90
39983;DHT22;25670;44.782;10.356;2023-12-20T11:46:05;8.10;99.90
39983;DHT22;25670;44.782;10.356;2023-12-20T11:48:33;8.20;99.90
39983;DHT22;25670;44.782;10.356;2023-12-20T11:51:00;8.10;99.90
39983;DHT22;25670;44.782;10.356;2023-12-20T11:53:26;8.10;99.90
39983;DHT22;25670;44.782;10.356;2023-12-20T11:55:54;8.10;99.90
39983;DHT22;25670;44.782;10.356;2023-12-20T11:58:20;8.20;99.90
39983;DHT22;25670;44.782;10.356;2023-12-20T12:00:49;8.10;99.90
39983;DHT22;25670;44.782;10.356;2023-12-20T12:03:16;8.20;99.90
39983;DHT22;25670;44.782;10.356;2023-12-20T12:05:42;8.20;99.90
39983;DHT22;25670;44.782;10.356;2023-12-20T12:08:08;8.20;99.90
39983;DHT22;25670;44.782;10.356;2023-12-20T12:10:34;8.30;99.90
39983;DHT22;25670;44.782;10.356;2023-12-20T12:13:00;8.30;99.90
39983;DHT22;25670;44.782;10.356;2023-12-20T12:15:26;8.40;99.90
39983;DHT22;25670;44.782;10.356;2023-12-20T12:17:56;8.30;99.90
39983;DHT22;25670;44.782;10.356;2023-12-20T12:20:23;8.50;99.90
39983;DHT22;25670;44.782;10.356;2023-12-20T12:23:08;8.50;99.90
39983;DHT22;25670;44.782;10.356;2023-12-20T12:25:37;8.50;99.90
39983;DHT22;25670;44.782;10.356;2023-12-20T12:28:04;8.50;99.90
39983;DHT22;25670;44.782;10.356;2023-12-20T12:30:30;8.60;99.90
39983;DHT22;25670;44.782;10.356;2023-12-20T12:32:56;8.80;99.90
39983;DHT22;25670;44.782;10.356;2023-12-20T12:35:24;8.80;99.90
39983;DHT22;25670;44.782;10.356;2023-12-20T12:37:51;8.70;99.90
39983;DHT22;25670;44.782;10.356;2023-12-20T12:40:17;8.60;99.90
39983;DHT22;25670;44.782;10.356;2023-12-20T12:42:44;8.70;99.90
39983;DHT22;25670;44.782;10.356;2023-12-20T12:45:11;9.00;99.90
39983;DHT22;25670;44.782;10.356;2023-12-20T12:47:37;9.20;99.90
39983;DHT22;25670;44.782;10.356;2023-12-20T12:50:04;9.20;99.90
39983;DHT22;25670;44.782;10.356;2023-12-20T12:52:31;9.20;99.90
39983;DHT22;25670;44.782;10.356;2023-12-20T12:54:57;9.30;99.90
39983;DHT22;25670;44.782;10.356;2023-12-20T12:57:23;9.30;99.90
39983;DHT22;25670;44.782;10.356;2023-12-20T12:59:49;9.30;99.90
39983;DHT22;25670;44.782;10.356;2023-12-20T13:02:16;9.30;99.90
39983;DHT22;25670;44.782;10.356;2023-12-20T13:04:42;9.10;99.90
39983;DHT22;25670;44.782;10.356;2023-12-20T13:07:09;9.20;99.90
39983;DHT22;25670;44.782;10.356;2023-12-20T13:09:39;9.30;99.90
39983;DHT22;25670;44.782;10.356;2023-12-20T13:12:06;9.40;99.90
39983;DHT22;25670;44.782;10.356;2023-12-20T13:14:34;9.50;99.90
39983;DHT22;25670;44.782;10.356;2023-12-20T13:17:03;9.80;99.90
39983;DHT22;25670;44.782;10.356;2023-12-20T13:19:30;10.50;99.90
39983;DHT22;25670;44.782;10.356;2023-12-20T13:21:56;11.40;99.90
39983;DHT22;25670;44.782;10.356;2023-12-20T13:24:24;12.50;99.90
39983;DHT22;25670;44.782;10.356;2023-12-20T13:26:50;13.00;99.90
39983;DHT22;25670;44.782;10.356;2023-12-20T13:29:16;13.00;99.90
39983;DHT22;25670;44.782;10.356;2023-12-20T13:31:42;12.80;99.90
39983;DHT22;25670;44.782;10.356;2023-12-20T13:34:09;12.40;99.90
39983;DHT22;25670;44.782;10.356;2023-12-20T13:36:37;11.60;99.90
39983;DHT22;25670;44.782;10.356;2023-12-20T13:39:04;11.20;99.90
39983;DHT22;25670;44.782;10.356;2023-12-20T13:41:31;10.80;99.90
39983;DHT22;25670;44.782;10.356;2023-12-20T13:43:57;10.60;99.90
39983;DHT22;25670;44.782;10.356;2023-12-20T13:46:23;10.30;99.90
39983;DHT22;25670;44.782;10.356;2023-12-20T13:48:50;10.20;99.90
39983;DHT22;25670;44.782;10.356;2023-12-20T13:51:16;10.20;99.90
39983;DHT22;25670;44.782;10.356;2023-12-20T13:53:42;10.10;99.90
39983;DHT22;25670;44.782;10.356;2023-12-20T13:56:08;10.00;99.90
39983;DHT22;25670;44.782;10.356;2023-12-20T13:58:35;10.10;99.90
39983;DHT22;25670;44.782;10.356;2023-12-20T14:01:01;10.20;99.90
39983;DHT22;25670;44.782;10.356;2023-12-20T14:03:28;10.20;99.90
39983;DHT22;25670;44.782;10.356;2023-12-20T14:05:54;10.20;99.90
39983;DHT22;25670;44.782;10.356;2023-12-20T14:08:20;10.20;99.90
39983;DHT22;25670;44.782;10.356;2023-12-20T14:10:47;10.10;99.90
39983;DHT22;25670;44.782;10.356;2023-12-20T14:13:13;10.10;99.90
39983;DHT22;25670;44.782;10.356;2023-12-20T14:15:39;10.10;99.90
39983;DHT22;25670;44.782;10.356;2023-12-20T14:18:06;9.90;99.90
39983;DHT22;25670;44.782;10.356;2023-12-20T14:20:34;10.00;99.90
39983;DHT22;25670;44.782;10.356;2023-12-20T14:23:01;9.90;99.90
39983;DHT22;25670;44.782;10.356;2023-12-20T14:25:27;10.00;99.90
39983;DHT22;25670;44.782;10.356;2023-12-20T14:27:53;10.00;99.90
39983;DHT22;25670;44.782;10.356;2023-12-20T14:30:20;10.00;99.90
39983;DHT22;25670;44.782;10.356;2023-12-20T14:32:46;9.90;99.90
39983;DHT22;25670;44.782;10.356;2023-12-20T14:35:14;9.80;99.90
39983;DHT22;25670;44.782;10.356;2023-12-20T14:37:40;9.60;99.90
39983;DHT22;25670;44.782;10.356;2023-12-20T14:40:07;9.40;99.90
39983;DHT22;25670;44.782;10.356;2023-12-20T14:42:46;9.20;99.90
39983;DHT22;25670;44.782;10.356;2023-12-20T14:45:12;8.90;99.90
39983;DHT22;25670;44.782;10.356;2023-12-20T14:47:44;8.80;99.90
39983;DHT22;25670;44.782;10.356;2023-12-20T14:50:11;8.60;99.90
39983;DHT22;25670;44.782;10.356;2023-12-20T14:52:43;8.40;99.90
39983;DHT22;25670;44.782;10.356;2023-12-20T14:55:09;8.20;99.90
39983;DHT22;25670;44.782;10.356;2023-12-20T14:57:35;7.90;99.90
39983;DHT22;25670;44.782;10.356;2023-12-20T15:00:01;7.80;99.90
39983;DHT22;25670;44.782;10.356;2023-12-20T15:02:28;7.60;99.90
39983;DHT22;25670;44.782;10.356;2023-12-20T15:04:54;7.50;99.90
39983;DHT22;25670;44.782;10.356;2023-12-20T15:07:20;7.30;99.90
39983;DHT22;25670;44.782;10.356;2023-12-20T15:09:46;7.20;99.90
39983;DHT22;25670;44.782;10.356;2023-12-20T15:12:13;7.20;99.90
39983;DHT22;25670;44.782;10.356;2023-12-20T15:14:40;7.00;99.90
39983;DHT22;25670;44.782;10.356;2023-12-20T15:17:06;6.80;99.90
39983;DHT22;25670;44.782;10.356;2023-12-20T15:19:32;6.70;99.90
39983;DHT22;25670;44.782;10.356;2023-12-20T15:21:58;6.50;99.90
39983;DHT22;25670;44.782;10.356;2023-12-20T15:24:25;6.40;99.90
39983;DHT22;25670;44.782;10.356;2023-12-20T15:27:04;6.30;99.90
39983;DHT22;25670;44.782;10.356;2023-12-20T15:29:31;6.20;99.90
39983;DHT22;25670;44.782;10.356;2023-12-20T15:31:57;6.20;99.90